Time;durP1;ratioP1;P1;durP2;ratioP2;P2;SDS_P1;SDS_P2;PMS_P1;PMS_P2;Temp;Humidity;BMP_temperature;BMP_pressure;BME280_temperature;BME280_humidity;BME280_pressure;Samples;Min_cycle;Max_cycle;Signal;HPM_P1;HPM_P2
2022/07/05 00:01:02;;;;;;;5.82;4.70;;;21.00;79.80;;;;;;5095518;28;20032;-63
2022/07/05 00:03:28;;;;;;;4.97;4.47;;;20.90;79.90;;;;;;5094639;28;20116;-63
2022/07/05 00:05:54;;;;;;;5.15;4.65;;;20.90;80.10;;;;;;5093965;28;20070;-63
2022/07/05 00:08:20;;;;;;;5.05;4.30;;;20.90;80.30;;;;;;5096598;28;20422;-63
2022/07/05 00:10:47;;;;;;;5.03;4.53;;;20.80;80.40;;;;;;5093727;28;20024;-63
2022/07/05 00:13:14;;;;;;;5.63;5.05;;;20.80;80.50;;;;;;5095890;28;20228;-63
2022/07/05 00:15:39;;;;;;;6.30;4.82;;;20.80;81.50;;;;;;5095024;28;20028;-63
2022/07/05 00:18:05;;;;;;;7.32;4.35;;;20.80;80.80;;;;;;5094129;28;20601;-63
2022/07/05 00:20:31;;;;;;;5.80;5.20;;;20.80;80.90;;;;;;5092736;28;20036;-63
2022/07/05 00:22:57;;;;;;;8.98;5.32;;;20.80;81.00;;;;;;5094327;28;20391;-63
2022/07/05 00:25:22;;;;;;;9.13;5.38;;;20.80;81.20;;;;;;5094723;28;20020;-63
2022/07/05 00:27:48;;;;;;;10.25;5.78;;;20.80;81.30;;;;;;5093299;28;20137;-63
2022/07/05 00:30:14;;;;;;;6.60;5.68;;;20.80;81.40;;;;;;5094758;28;20352;-63
2022/07/05 00:32:40;;;;;;;7.22;6.20;;;20.70;81.50;;;;;;5093187;28;20395;-63
2022/07/05 00:35:08;;;;;;;6.65;6.05;;;20.80;81.60;;;;;;5094320;28;20036;-63
2022/07/05 00:37:34;;;;;;;7.15;6.18;;;20.80;81.70;;;;;;5093684;28;20130;-63
2022/07/05 00:39:59;;;;;;;6.45;5.85;;;20.80;81.80;;;;;;5074557;28;20127;-63
2022/07/05 00:42:25;;;;;;;7.32;6.30;;;20.80;82.70;;;;;;5093515;28;20050;-63
2022/07/05 00:44:51;;;;;;;6.68;5.40;;;20.80;82.00;;;;;;5095793;28;20033;-64
2022/07/05 00:47:17;;;;;;;6.95;6.13;;;20.80;81.90;;;;;;5095149;28;20119;-62
2022/07/05 00:49:43;;;;;;;10.05;6.68;;;20.80;82.60;;;;;;5095380;28;20035;-63
2022/07/05 00:52:10;;;;;;;6.72;6.03;;;20.80;82.70;;;;;;5091999;28;20039;-62
2022/07/05 00:54:38;;;;;;;8.40;6.95;;;20.80;81.80;;;;;;5095243;28;20031;-63
2022/07/05 00:57:04;;;;;;;7.95;6.65;;;20.80;81.90;;;;;;5091470;28;20093;-63
2022/07/05 00:59:30;;;;;;;18.75;7.05;;;20.80;81.80;;;;;;5095382;28;20140;-63
2022/07/05 01:01:56;;;;;;;7.20;6.47;;;20.80;81.80;;;;;;5092273;28;20131;-63
2022/07/05 01:04:22;;;;;;;7.40;6.63;;;20.80;81.80;;;;;;5095272;28;20032;-64
2022/07/05 01:06:50;;;;;;;15.18;7.88;;;20.70;81.90;;;;;;5093937;28;20039;-63
2022/07/05 01:09:18;;;;;;;18.02;7.53;;;20.70;82.00;;;;;;5093383;28;20040;-64
2022/07/05 01:11:44;;;;;;;55.28;7.30;;;20.70;82.00;;;;;;5093430;28;20512;-63
2022/07/05 01:14:13;;;;;;;35.22;7.63;;;20.60;81.90;;;;;;5094118;28;20035;-65
2022/07/05 01:16:39;;;;;;;12.98;6.90;;;20.60;82.20;;;;;;5092283;28;20036;-63
2022/07/05 01:19:11;;;;;;;26.73;7.22;;;20.50;82.00;;;;;;5094996;28;20039;-63
2022/07/05 01:21:42;;;;;;;51.35;7.85;;;20.50;82.70;;;;;;5093585;28;20032;-63
2022/07/05 01:24:13;;;;;;;49.47;8.38;;;20.50;82.40;;;;;;5094196;28;20024;-63
2022/07/05 01:26:40;;;;;;;35.65;7.43;;;20.40;82.70;;;;;;5093329;28;20036;-63
2022/07/05 01:29:07;;;;;;;12.50;7.07;;;20.40;82.60;;;;;;5092377;28;20028;-63
2022/07/05 01:31:33;;;;;;;33.35;8.50;;;20.40;82.80;;;;;;5092959;28;20032;-63
2022/07/05 01:33:59;;;;;;;27.48;7.65;;;20.30;82.90;;;;;;5093158;28;20040;-61
2022/07/05 01:36:25;;;;;;;8.55;7.75;;;20.30;83.10;;;;;;5093993;28;20059;-64
2022/07/05 01:38:51;;;;;;;15.93;7.90;;;20.30;83.20;;;;;;5094290;28;20491;-63
2022/07/05 01:41:17;;;;;;;9.07;8.27;;;20.30;83.10;;;;;;5094386;28;20050;-63
2022/07/05 01:43:43;;;;;;;8.70;7.95;;;20.30;83.10;;;;;;5095495;28;20027;-63
2022/07/05 01:46:10;;;;;;;8.38;7.68;;;20.30;83.10;;;;;;5091165;28;20318;-63
2022/07/05 01:48:39;;;;;;;13.85;7.30;;;20.30;83.20;;;;;;5093788;28;20085;-63
2022/07/05 01:51:15;;;;;;;8.65;7.85;;;20.30;83.10;;;;;;5092542;28;20040;-63
2022/07/05 01:53:42;;;;;;;21.67;7.97;;;20.40;83.20;;;;;;5097306;28;20081;-63
2022/07/05 01:56:08;;;;;;;8.52;7.72;;;20.40;83.00;;;;;;5097644;28;20042;-63
2022/07/05 01:58:35;;;;;;;9.25;7.35;;;20.30;82.90;;;;;;5095357;28;20031;-63
2022/07/05 02:01:01;;;;;;;20.40;7.70;;;20.40;83.00;;;;;;5098734;28;20101;-63
2022/07/05 02:03:27;;;;;;;15.18;7.57;;;20.40;82.90;;;;;;5097251;28;20518;-62
2022/07/05 02:05:53;;;;;;;8.85;7.47;;;20.30;82.70;;;;;;5097835;28;20119;-63
2022/07/05 02:08:19;;;;;;;8.13;7.32;;;20.30;82.70;;;;;;5097833;28;20032;-63
2022/07/05 02:10:45;;;;;;;9.55;7.10;;;20.30;82.70;;;;;;5094874;27;20112;-61
2022/07/05 02:13:12;;;;;;;8.00;7.30;;;20.30;82.70;;;;;;5096337;27;20219;-63
2022/07/05 02:15:40;;;;;;;9.77;7.53;;;20.20;82.80;;;;;;5097274;28;20040;-63
2022/07/05 02:18:07;;;;;;;14.30;7.47;;;20.20;83.00;;;;;;5097898;27;20118;-63
2022/07/05 02:20:34;;;;;;;8.52;6.85;;;20.20;83.10;;;;;;5096895;28;20040;-63
2022/07/05 02:22:59;;;;;;;7.90;7.20;;;20.20;83.10;;;;;;5095225;28;20107;-63
2022/07/05 02:25:25;;;;;;;7.90;7.10;;;20.10;83.30;;;;;;5096208;28;20502;-63
2022/07/05 02:27:52;;;;;;;7.00;6.45;;;20.10;83.60;;;;;;5098230;28;20036;-63
2022/07/05 02:30:18;;;;;;;6.88;6.38;;;20.10;83.60;;;;;;5096505;28;20084;-63
2022/07/05 02:32:44;;;;;;;6.88;6.18;;;20.10;83.40;;;;;;5095062;28;20124;-63
2022/07/05 02:35:10;;;;;;;7.10;6.55;;;20.10;83.40;;;;;;5095907;28;20429;-63
2022/07/05 02:37:36;;;;;;;7.65;6.95;;;20.10;83.40;;;;;;5097596;28;20066;-63
2022/07/05 02:40:03;;;;;;;7.10;6.47;;;20.10;83.30;;;;;;5095187;28;20193;-63
2022/07/05 02:42:29;;;;;;;6.30;5.80;;;20.10;83.30;;;;;;5094926;28;20031;-63
2022/07/05 02:44:54;;;;;;;6.43;5.93;;;20.10;83.30;;;;;;5096743;28;20035;-62
2022/07/05 02:47:20;;;;;;;6.60;6.03;;;20.10;83.40;;;;;;5096754;28;20043;-63
2022/07/05 02:49:45;;;;;;;7.53;5.85;;;20.10;83.40;;;;;;5095407;28;20067;-63
2022/07/05 02:52:11;;;;;;;6.88;6.28;;;20.10;84.10;;;;;;5098235;28;20414;-62
2022/07/05 02:54:36;;;;;;;8.30;6.60;;;20.10;83.10;;;;;;5095607;28;20050;-62
2022/07/05 02:57:02;;;;;;;5.95;5.47;;;20.10;83.00;;;;;;5094516;28;20126;-63
2022/07/05 02:59:29;;;;;;;6.70;6.15;;;20.10;82.70;;;;;;5096515;28;20077;-63
2022/07/05 03:01:55;;;;;;;7.28;6.47;;;20.10;82.70;;;;;;5095401;27;20071;-62
2022/07/05 03:04:21;;;;;;;6.88;6.38;;;20.10;82.70;;;;;;5097161;28;20067;-63
2022/07/05 03:06:46;;;;;;;7.13;6.43;;;20.00;82.50;;;;;;5096580;28;20114;-62
2022/07/05 03:09:12;;;;;;;7.15;6.55;;;20.00;82.40;;;;;;5096040;28;20058;-63
2022/07/05 03:11:37;;;;;;;7.10;6.50;;;20.00;82.40;;;;;;5095757;28;20047;-63
2022/07/05 03:14:03;;;;;;;6.93;6.43;;;20.00;82.70;;;;;;5096420;28;20065;-62
2022/07/05 03:16:29;;;;;;;7.05;6.55;;;19.90;83.50;;;;;;5094708;28;20504;-62
2022/07/05 03:18:55;;;;;;;7.93;7.10;;;19.90;82.70;;;;;;5095560;28;20503;-63
2022/07/05 03:21:20;;;;;;;8.73;7.70;;;19.90;82.70;;;;;;5096295;28;20024;-63
2022/07/05 03:23:46;;;;;;;8.93;7.47;;;19.90;82.70;;;;;;5096456;28;20098;-63
2022/07/05 03:26:12;;;;;;;8.43;7.63;;;19.90;82.70;;;;;;5096282;28;20490;-62
2022/07/05 03:28:37;;;;;;;9.68;8.30;;;19.90;82.60;;;;;;5095572;28;20425;-63
2022/07/05 03:31:03;;;;;;;9.68;8.43;;;19.90;82.40;;;;;;5096957;28;20024;-62
2022/07/05 03:33:28;;;;;;;9.25;8.15;;;19.90;82.50;;;;;;5096495;28;20135;-61
2022/07/05 03:35:54;;;;;;;10.23;8.02;;;19.90;83.60;;;;;;5096612;28;20502;-63
2022/07/05 03:38:20;;;;;;;9.23;8.43;;;19.80;82.70;;;;;;5095001;28;20028;-63
2022/07/05 03:40:45;;;;;;;10.65;9.15;;;19.80;82.70;;;;;;5097683;28;20036;-63
2022/07/05 03:43:11;;;;;;;9.88;8.98;;;19.80;82.60;;;;;;5096427;28;20040;-63
2022/07/05 03:45:36;;;;;;;10.15;9.15;;;19.80;82.40;;;;;;5096520;28;20024;-63
2022/07/05 03:48:02;;;;;;;10.32;9.35;;;19.70;82.20;;;;;;5095416;28;20127;-63
2022/07/05 03:50:28;;;;;;;10.48;9.32;;;19.70;82.50;;;;;;5096259;28;20398;-63
2022/07/05 03:52:54;;;;;;;10.38;9.40;;;19.60;82.90;;;;;;5095864;28;20530;-63
2022/07/05 03:55:20;;;;;;;14.05;9.93;;;19.60;83.30;;;;;;5096404;28;20039;-62
2022/07/05 03:57:47;;;;;;;12.27;9.63;;;19.60;83.50;;;;;;5096848;28;20043;-62
2022/07/05 04:00:13;;;;;;;10.32;9.32;;;19.60;83.40;;;;;;5093665;28;20036;-62
2022/07/05 04:02:39;;;;;;;10.75;9.65;;;19.60;83.40;;;;;;5095515;28;20126;-63
2022/07/05 04:05:05;;;;;;;11.23;9.60;;;19.60;83.30;;;;;;5094709;28;20123;-63
2022/07/05 04:07:31;;;;;;;10.68;9.57;;;19.60;83.30;;;;;;5096115;28;20400;-63
2022/07/05 04:09:57;;;;;;;11.63;10.40;;;19.60;83.30;;;;;;5093906;28;20347;-63
2022/07/05 04:12:22;;;;;;;12.13;10.82;;;19.70;83.30;;;;;;5094193;27;20032;-63
2022/07/05 04:14:48;;;;;;;12.98;11.68;;;19.70;83.90;;;;;;5095208;28;20040;-63
2022/07/05 04:17:14;;;;;;;13.07;10.95;;;19.70;82.80;;;;;;5095210;28;20126;-63
2022/07/05 04:19:39;;;;;;;12.18;10.95;;;19.70;82.70;;;;;;5095063;28;20070;-62
2022/07/05 04:22:05;;;;;;;11.23;10.07;;;19.70;82.80;;;;;;5093381;28;20567;-62
2022/07/05 04:24:31;;;;;;;11.25;10.15;;;19.70;82.90;;;;;;5093489;28;20067;-63
2022/07/05 04:26:56;;;;;;;11.48;10.32;;;19.70;82.90;;;;;;5093994;28;20495;-62
2022/07/05 04:29:22;;;;;;;11.32;10.20;;;19.70;83.00;;;;;;5095955;28;20112;-63
2022/07/05 04:31:48;;;;;;;12.35;11.15;;;19.70;82.90;;;;;;5094634;28;20035;-63
2022/07/05 04:34:14;;;;;;;13.15;11.50;;;19.70;82.80;;;;;;5097392;28;20120;-63
2022/07/05 04:36:40;;;;;;;12.32;11.15;;;19.70;82.80;;;;;;5095851;28;20192;-62
2022/07/05 04:39:07;;;;;;;12.90;11.50;;;19.70;82.80;;;;;;5095297;28;20039;-62
2022/07/05 04:41:33;;;;;;;12.05;10.85;;;19.80;82.90;;;;;;5096080;28;20032;-63
2022/07/05 04:43:59;;;;;;;10.95;9.95;;;19.70;82.70;;;;;;5095923;28;20134;-63
2022/07/05 04:46:24;;;;;;;10.82;9.73;;;19.80;82.80;;;;;;5095295;28;20164;-64
2022/07/05 04:48:50;;;;;;;9.60;8.60;;;19.80;82.60;;;;;;5095001;28;20039;-63
2022/07/05 04:51:16;;;;;;;8.05;7.35;;;19.80;82.40;;;;;;5095191;28;20061;-63
2022/07/05 04:53:42;;;;;;;8.98;8.18;;;19.80;82.40;;;;;;5096405;28;20044;-63
2022/07/05 04:56:07;;;;;;;7.70;7.00;;;19.80;82.30;;;;;;5095580;28;20031;-62
2022/07/05 04:58:33;;;;;;;7.80;7.10;;;19.70;82.20;;;;;;5095189;28;20059;-63
2022/07/05 05:00:59;;;;;;;7.10;6.50;;;19.70;82.30;;;;;;5097207;28;20221;-63
2022/07/05 05:03:24;;;;;;;7.90;6.07;;;19.70;82.70;;;;;;5094877;28;20036;-62
2022/07/05 05:05:50;;;;;;;6.15;5.55;;;19.70;83.00;;;;;;5096129;28;20498;-63
2022/07/05 05:08:16;;;;;;;6.45;5.85;;;19.70;83.10;;;;;;5095874;28;20044;-62
2022/07/05 05:10:42;;;;;;;6.20;5.72;;;19.80;82.90;;;;;;5095145;28;20020;-63
2022/07/05 05:13:07;;;;;;;6.30;5.80;;;19.80;82.80;;;;;;5096725;28;20035;-63
2022/07/05 05:15:33;;;;;;;5.22;4.82;;;19.80;82.70;;;;;;5096443;28;20511;-63
2022/07/05 05:17:58;;;;;;;7.13;6.43;;;19.90;82.80;;;;;;5096791;28;20039;-61
2022/07/05 05:20:24;;;;;;;6.93;6.32;;;19.90;82.70;;;;;;5094506;28;20543;-63
2022/07/05 05:22:50;;;;;;;6.43;5.93;;;20.00;82.70;;;;;;5095481;28;20035;-63
2022/07/05 05:25:16;;;;;;;5.75;5.25;;;20.00;82.60;;;;;;5096564;28;20031;-62
2022/07/05 05:27:43;;;;;;;6.30;5.53;;;20.00;82.70;;;;;;5099207;28;20272;-63
2022/07/05 05:30:10;;;;;;;5.03;4.72;;;20.10;82.60;;;;;;5099191;28;20050;-63
2022/07/05 05:32:36;;;;;;;5.35;4.95;;;20.10;82.60;;;;;;5099232;28;20129;-62
2022/07/05 05:35:01;;;;;;;5.63;5.13;;;20.10;82.60;;;;;;5099837;28;20123;-63
2022/07/05 05:37:27;;;;;;;5.68;5.28;;;20.10;82.90;;;;;;5098512;28;20047;-63
2022/07/05 05:39:52;;;;;;;6.25;5.72;;;20.10;82.80;;;;;;5100471;28;20046;-62
2022/07/05 05:42:18;;;;;;;6.97;4.90;;;20.10;82.90;;;;;;5099191;28;20032;-63
2022/07/05 05:44:43;;;;;;;5.97;4.93;;;20.10;82.70;;;;;;5099505;27;20046;-62
2022/07/05 05:47:09;;;;;;;5.80;5.22;;;20.10;82.70;;;;;;5098750;28;20538;-63
2022/07/05 05:49:35;;;;;;;4.95;4.55;;;20.10;82.70;;;;;;5097275;28;20051;-63
2022/07/05 05:52:00;;;;;;;6.15;5.25;;;20.10;82.90;;;;;;5098289;28;20028;-63
2022/07/05 05:54:26;;;;;;;5.13;4.72;;;20.10;83.10;;;;;;5097685;28;20067;-63
2022/07/05 05:56:52;;;;;;;5.22;4.72;;;20.10;83.20;;;;;;5098056;28;20040;-63
2022/07/05 05:59:17;;;;;;;4.90;4.50;;;20.20;83.20;;;;;;5100027;28;20036;-62
2022/07/05 06:01:43;;;;;;;4.25;3.95;;;20.30;83.10;;;;;;5100054;27;20128;-63
2022/07/05 06:04:08;;;;;;;4.95;4.03;;;20.30;83.10;;;;;;5098590;28;20223;-64
2022/07/05 06:06:34;;;;;;;4.35;3.95;;;20.40;82.90;;;;;;5098517;28;20032;-63
2022/07/05 06:08:59;;;;;;;4.50;4.07;;;20.50;82.90;;;;;;5098884;27;20028;-65
2022/07/05 06:11:25;;;;;;;4.38;3.83;;;20.50;82.80;;;;;;5095889;27;20525;-63
2022/07/05 06:13:51;;;;;;;3.55;3.35;;;20.60;82.60;;;;;;5098861;28;20035;-63
2022/07/05 06:16:16;;;;;;;3.90;3.60;;;20.60;82.60;;;;;;5096291;28;20462;-63
2022/07/05 06:18:42;;;;;;;3.80;3.50;;;20.70;82.40;;;;;;5097129;28;20105;-63
2022/07/05 06:21:07;;;;;;;4.10;3.10;;;20.70;82.40;;;;;;5095984;28;20140;-63
2022/07/05 06:23:33;;;;;;;3.70;3.35;;;20.70;82.30;;;;;;5099348;28;20529;-63
2022/07/05 06:25:58;;;;;;;3.88;3.08;;;20.70;82.40;;;;;;5098575;28;20077;-63
2022/07/05 06:28:24;;;;;;;3.58;3.28;;;20.70;82.20;;;;;;5098470;28;20034;-62
2022/07/05 06:30:50;;;;;;;3.67;3.38;;;20.80;82.30;;;;;;5098235;27;20652;-63
2022/07/05 06:33:15;;;;;;;4.10;3.67;;;20.80;82.20;;;;;;5097740;28;20040;-63
2022/07/05 06:35:41;;;;;;;4.13;3.42;;;20.80;81.90;;;;;;5100235;28;20032;-63
2022/07/05 06:38:08;;;;;;;3.40;3.20;;;20.80;82.00;;;;;;5097896;28;20039;-63
2022/07/05 06:40:39;;;;;;;3.47;3.20;;;20.80;81.90;;;;;;5098403;28;20469;-62
2022/07/05 06:43:10;;;;;;;3.30;3.10;;;20.80;81.70;;;;;;5098164;28;20058;-63
2022/07/05 06:45:36;;;;;;;3.60;3.20;;;20.80;81.30;;;;;;5099742;28;20062;-63
2022/07/05 06:48:10;;;;;;;2.85;2.65;;;20.80;81.30;;;;;;5098140;28;20028;-62
2022/07/05 06:50:38;;;;;;;3.00;2.80;;;20.90;81.70;;;;;;5096021;28;20598;-63
2022/07/05 06:53:05;;;;;;;3.22;2.88;;;20.90;81.40;;;;;;5097922;28;20309;-63
2022/07/05 06:55:31;;;;;;;3.40;2.92;;;20.90;81.00;;;;;;5096437;28;20316;-63
2022/07/05 06:58:07;;;;;;;3.00;2.80;;;21.00;80.70;;;;;;5098452;28;20038;-63
2022/07/05 07:00:34;;;;;;;2.85;2.70;;;21.00;80.50;;;;;;5096062;28;20566;-63
2022/07/05 07:03:00;;;;;;;2.72;2.40;;;21.00;80.60;;;;;;5097596;28;20070;-63
2022/07/05 07:05:27;;;;;;;3.83;2.92;;;21.10;80.70;;;;;;5081590;28;20265;-63
2022/07/05 07:10:37;;;;;;;3.05;2.45;;;21.30;80.60;;;;;;5096117;27;20042;-63
2022/07/05 07:13:03;;;;;;;2.55;2.42;;;21.30;80.30;;;;;;5097328;28;20035;-63
2022/07/05 07:15:29;;;;;;;2.70;2.50;;;21.40;80.30;;;;;;5096634;28;20024;-63
2022/07/05 07:17:56;;;;;;;2.63;2.13;;;21.50;80.50;;;;;;5096934;28;20083;-63
2022/07/05 07:20:21;;;;;;;6.10;2.15;;;21.50;80.30;;;;;;5096087;28;20024;-63
2022/07/05 07:22:47;;;;;;;2.90;1.67;;;21.60;80.20;;;;;;5096755;28;20557;-63
2022/07/05 07:25:13;;;;;;;2.10;1.60;;;21.70;80.00;;;;;;5095983;28;20032;-63
2022/07/05 07:27:49;;;;;;;1.60;1.50;;;21.80;79.60;;;;;;5098580;28;20039;-64
2022/07/05 07:30:17;;;;;;;1.60;1.48;;;21.90;77.90;;;;;;5097523;28;20032;-64
2022/07/05 07:32:44;;;;;;;1.60;1.50;;;21.90;77.90;;;;;;5097282;28;20480;-63
2022/07/05 07:35:10;;;;;;;1.55;1.45;;;22.00;78.00;;;;;;5096106;28;20027;-64
2022/07/05 07:37:36;;;;;;;2.58;1.30;;;22.10;77.60;;;;;;5096719;28;20051;-63
2022/07/05 07:40:06;;;;;;;1.40;1.30;;;22.20;77.40;;;;;;5098037;28;20043;-63
2022/07/05 07:42:32;;;;;;;1.58;1.20;;;22.20;77.50;;;;;;5095658;28;20143;-63
2022/07/05 07:44:58;;;;;;;1.30;1.20;;;22.30;76.20;;;;;;5097895;28;20028;-64
2022/07/05 07:47:24;;;;;;;2.30;1.20;;;22.40;75.10;;;;;;5095945;28;20160;-63
2022/07/05 07:49:50;;;;;;;1.30;1.20;;;22.50;74.80;;;;;;5096565;28;20502;-64
2022/07/05 07:52:15;;;;;;;1.00;0.80;;;22.60;73.20;;;;;;5096666;28;20204;-64
2022/07/05 07:54:41;;;;;;;3.60;1.05;;;22.70;72.30;;;;;;5095914;28;20056;-64
2022/07/05 07:57:07;;;;;;;1.85;1.00;;;22.70;72.30;;;;;;5096653;28;20036;-64
2022/07/05 07:59:33;;;;;;;1.50;0.90;;;22.80;71.30;;;;;;5096750;28;20028;-64
2022/07/05 08:01:59;;;;;;;1.08;0.90;;;22.90;70.70;;;;;;5092935;27;20040;-63
2022/07/05 08:04:25;;;;;;;1.30;0.82;;;23.00;71.10;;;;;;5096038;28;20046;-64
2022/07/05 08:06:51;;;;;;;1.80;0.80;;;23.00;69.10;;;;;;5097225;28;20124;-64
2022/07/05 08:09:16;;;;;;;2.42;0.85;;;23.10;66.90;;;;;;5097724;28;20036;-64
2022/07/05 08:11:43;;;;;;;1.13;0.77;;;23.20;67.10;;;;;;5096530;28;20032;-64
2022/07/05 08:14:08;;;;;;;5.20;1.00;;;23.20;67.10;;;;;;5097904;28;20108;-64
2022/07/05 08:16:35;;;;;;;1.63;0.80;;;23.30;67.60;;;;;;5097567;28;20232;-64
2022/07/05 08:21:47;;;;;;;1.30;0.70;;;23.50;65.90;;;;;;5097446;28;20083;-64
2022/07/05 08:24:13;;;;;;;1.10;0.70;;;23.60;65.70;;;;;;5096749;28;20032;-64
2022/07/05 08:26:40;;;;;;;0.70;0.60;;;23.60;65.80;;;;;;5096853;28;20028;-64
2022/07/05 08:29:09;;;;;;;2.38;0.70;;;23.70;65.20;;;;;;5096927;28;20032;-64
2022/07/05 08:31:41;;;;;;;1.15;0.80;;;23.80;66.60;;;;;;5097404;28;20053;-64
2022/07/05 08:34:07;;;;;;;0.85;0.85;;;23.90;64.80;;;;;;5097033;28;20505;-64
2022/07/05 08:36:33;;;;;;;0.68;0.68;;;24.00;65.80;;;;;;5095504;28;20036;-64
2022/07/05 08:38:59;;;;;;;1.15;0.80;;;24.10;65.70;;;;;;5098630;28;20150;-64
2022/07/05 08:41:24;;;;;;;0.80;0.70;;;24.20;65.70;;;;;;5097355;28;20428;-65
2022/07/05 08:43:54;;;;;;;2.55;0.90;;;24.30;66.30;;;;;;5097179;28;20114;-65
2022/07/05 08:46:20;;;;;;;2.03;0.80;;;24.40;65.70;;;;;;5094564;28;20029;-64
2022/07/05 08:48:51;;;;;;;1.90;0.70;;;24.40;63.90;;;;;;5097008;28;20081;-64
2022/07/05 08:51:21;;;;;;;3.47;0.60;;;24.60;63.30;;;;;;5096751;28;20030;-64
2022/07/05 08:53:51;;;;;;;0.93;0.60;;;24.60;63.20;;;;;;5097389;28;20032;-65
2022/07/05 08:56:18;;;;;;;1.17;0.50;;;24.70;62.40;;;;;;5095665;28;20035;-64
2022/07/05 08:58:44;;;;;;;0.47;0.47;;;24.80;62.00;;;;;;5096443;28;20459;-64
2022/07/05 09:01:11;;;;;;;0.80;0.65;;;24.80;60.90;;;;;;5098689;28;20039;-65
2022/07/05 09:03:45;;;;;;;1.58;0.70;;;24.90;60.30;;;;;;5102284;28;20044;-65
2022/07/05 09:06:13;;;;;;;2.17;0.50;;;25.00;59.30;;;;;;5103116;28;20121;-65
2022/07/05 09:08:40;;;;;;;0.50;0.50;;;25.00;59.60;;;;;;5101421;28;20027;-65
2022/07/05 09:11:07;;;;;;;0.43;0.35;;;25.10;59.10;;;;;;5100061;28;20032;-65
2022/07/05 09:13:35;;;;;;;2.50;0.60;;;25.10;58.60;;;;;;5102090;28;20035;-64
2022/07/05 09:16:01;;;;;;;2.03;0.63;;;25.20;58.50;;;;;;5101662;28;20081;-64
2022/07/05 09:18:44;;;;;;;1.00;0.50;;;25.30;58.00;;;;;;5101119;28;20036;-64
2022/07/05 09:21:20;;;;;;;1.25;0.47;;;25.30;57.70;;;;;;5100477;28;20039;-64
2022/07/05 09:24:02;;;;;;;1.23;0.60;;;25.40;56.40;;;;;;5101086;28;20525;-64
2022/07/05 09:26:36;;;;;;;0.90;0.60;;;25.50;55.90;;;;;;5099017;28;20036;-65
2022/07/05 09:29:04;;;;;;;1.38;0.60;;;25.60;56.40;;;;;;5101394;28;20024;-65
2022/07/05 09:31:44;;;;;;;1.30;0.50;;;25.70;55.30;;;;;;5100237;28;20020;-64
2022/07/05 09:34:17;;;;;;;1.25;0.60;;;25.80;54.30;;;;;;5100974;28;20032;-64
2022/07/05 09:36:53;;;;;;;1.95;0.60;;;25.80;54.90;;;;;;5100052;28;20044;-64
2022/07/05 09:39:34;;;;;;;0.82;0.50;;;25.90;54.60;;;;;;5101001;28;20056;-65
2022/07/05 09:42:22;;;;;;;0.50;0.50;;;25.90;53.70;;;;;;5102020;28;20031;-64
2022/07/05 09:44:49;;;;;;;1.05;0.50;;;26.10;53.20;;;;;;5102486;28;20028;-64
2022/07/05 09:47:19;;;;;;;1.50;0.70;;;26.10;54.10;;;;;;5101302;28;20486;-65
2022/07/05 09:49:56;;;;;;;0.43;0.43;;;26.20;53.60;;;;;;5100188;28;20028;-65
2022/07/05 09:52:31;;;;;;;1.27;0.47;;;26.30;51.90;;;;;;5096751;28;20024;-65
2022/07/05 09:55:01;;;;;;;0.90;0.55;;;26.30;50.80;;;;;;5101353;28;20038;-64
2022/07/05 09:57:27;;;;;;;0.63;0.50;;;26.40;51.80;;;;;;5100380;28;20053;-64
2022/07/05 10:00:01;;;;;;;1.38;0.50;;;26.40;51.10;;;;;;5101819;28;20031;-64
2022/07/05 10:02:47;;;;;;;2.67;0.57;;;26.50;50.50;;;;;;5099972;28;20046;-64
2022/07/05 10:05:17;;;;;;;0.43;0.40;;;26.60;49.80;;;;;;5100521;28;20039;-65
2022/07/05 10:07:48;;;;;;;1.30;0.50;;;26.60;51.60;;;;;;5098884;28;20099;-65
2022/07/05 10:10:15;;;;;;;0.60;0.40;;;26.60;47.90;;;;;;5099946;28;20039;-65
2022/07/05 10:12:46;;;;;;;0.45;0.45;;;26.50;49.40;;;;;;5095118;28;20075;-64
2022/07/05 10:15:14;;;;;;;0.77;0.40;;;26.50;49.70;;;;;;5082694;28;20495;-65
2022/07/05 10:17:44;;;;;;;2.53;0.70;;;26.50;49.60;;;;;;5100242;28;20072;-65
2022/07/05 10:20:40;;;;;;;3.72;0.50;;;26.50;48.20;;;;;;5100370;28;20031;-65
2022/07/05 10:23:11;;;;;;;1.58;0.40;;;26.50;46.60;;;;;;5098629;28;20590;-64
2022/07/05 10:25:40;;;;;;;0.50;0.40;;;26.50;47.20;;;;;;5099913;28;20563;-65
2022/07/05 10:28:07;;;;;;;1.55;0.60;;;26.50;47.30;;;;;;5098768;28;20032;-64
2022/07/05 10:30:33;;;;;;;0.50;0.40;;;26.50;48.80;;;;;;5097900;28;20059;-64
2022/07/05 10:33:01;;;;;;;2.50;0.60;;;26.50;49.70;;;;;;5098795;28;20036;-64
2022/07/05 10:35:27;;;;;;;0.68;0.50;;;26.60;50.10;;;;;;5100727;28;20036;-65
2022/07/05 10:37:54;;;;;;;2.05;0.50;;;26.70;50.00;;;;;;5101152;28;20039;-64
2022/07/05 10:40:19;;;;;;;0.40;0.30;;;26.80;49.40;;;;;;5098737;28;20484;-65
2022/07/05 10:42:52;;;;;;;0.68;0.30;;;26.90;46.30;;;;;;5098268;28;20122;-64
2022/07/05 10:45:31;;;;;;;0.38;0.30;;;26.90;43.60;;;;;;5098218;28;20032;-65
2022/07/05 10:48:23;;;;;;;1.30;0.40;;;27.00;45.10;;;;;;5101271;28;20044;-65
2022/07/05 10:51:14;;;;;;;1.23;0.50;;;27.00;45.20;;;;;;5078020;28;20052;-64
2022/07/05 10:53:39;;;;;;;0.75;0.52;;;27.10;46.20;;;;;;5099935;28;20518;-65
2022/07/05 10:56:05;;;;;;;0.88;0.38;;;27.10;46.40;;;;;;5098391;28;20089;-64
2022/07/05 10:58:41;;;;;;;0.75;0.40;;;27.20;44.50;;;;;;5095299;28;20040;-64
2022/07/05 11:01:15;;;;;;;2.15;0.50;;;27.20;44.40;;;;;;5098109;27;20104;-64
2022/07/05 11:03:55;;;;;;;0.50;0.30;;;27.20;45.30;;;;;;5099837;28;20032;-65
2022/07/05 11:06:31;;;;;;;0.40;0.40;;;27.20;46.50;;;;;;5098351;28;20136;-64
2022/07/05 11:08:59;;;;;;;0.50;0.32;;;27.30;44.70;;;;;;5097794;28;20070;-64
2022/07/05 11:11:27;;;;;;;0.50;0.40;;;27.30;44.60;;;;;;5082980;28;20036;-64
2022/07/05 11:13:55;;;;;;;0.90;0.57;;;27.30;44.00;;;;;;5098892;28;20024;-64
2022/07/05 11:16:30;;;;;;;0.80;0.43;;;27.40;44.60;;;;;;5099280;28;20388;-65
2022/07/05 11:19:06;;;;;;;0.55;0.30;;;27.40;43.60;;;;;;5100242;28;20024;-65
2022/07/05 11:21:33;;;;;;;1.20;0.40;;;27.50;43.30;;;;;;5099536;28;20032;-65
2022/07/05 11:24:24;;;;;;;1.10;0.32;;;27.50;44.00;;;;;;5097290;28;20027;-64
2022/07/05 11:26:54;;;;;;;1.30;0.50;;;27.50;44.10;;;;;;5099498;28;20024;-65
2022/07/05 11:29:42;;;;;;;0.90;0.50;;;27.50;44.20;;;;;;5096173;28;20027;-65
2022/07/05 11:32:15;;;;;;;0.43;0.40;;;27.60;41.80;;;;;;5097510;28;20028;-65
2022/07/05 11:34:44;;;;;;;0.30;0.30;;;27.60;43.10;;;;;;5098305;28;20385;-65
2022/07/05 11:37:36;;;;;;;0.60;0.32;;;27.70;44.50;;;;;;5096993;28;20508;-65
2022/07/05 11:40:10;;;;;;;0.95;0.45;;;27.70;42.90;;;;;;5096762;28;20046;-65
2022/07/05 11:42:56;;;;;;;0.73;0.50;;;27.80;42.60;;;;;;5097128;28;20085;-64
2022/07/05 11:45:22;;;;;;;0.65;0.50;;;27.90;40.70;;;;;;5097328;28;20411;-65
2022/07/05 11:47:48;;;;;;;0.40;0.40;;;27.90;42.10;;;;;;5097133;28;20032;-65
2022/07/05 11:50:14;;;;;;;0.77;0.40;;;27.80;42.90;;;;;;5097343;28;20077;-65
2022/07/05 11:52:40;;;;;;;1.55;0.30;;;27.80;43.10;;;;;;5096498;28;20039;-65
2022/07/05 11:55:08;;;;;;;1.20;0.50;;;27.80;41.80;;;;;;5098767;28;20042;-65
2022/07/05 11:57:34;;;;;;;0.80;0.52;;;27.70;41.70;;;;;;5096987;28;20081;-65
2022/07/05 12:00:00;;;;;;;0.77;0.50;;;27.60;41.90;;;;;;5095605;28;20035;-65
2022/07/05 12:02:25;;;;;;;0.40;0.40;;;27.50;41.50;;;;;;5096074;28;20035;-65
2022/07/05 12:04:54;;;;;;;1.05;0.52;;;27.50;41.40;;;;;;5097835;28;20043;-65
2022/07/05 12:07:25;;;;;;;1.05;0.40;;;27.50;41.80;;;;;;5096762;28;20036;-65
2022/07/05 12:12:45;;;;;;;0.70;0.32;;;27.50;42.30;;;;;;5096359;27;20038;-64
2022/07/05 12:15:13;;;;;;;;;;;27.50;39.90;;;;;;5098624;28;20057;-65
2022/07/05 12:17:41;;;;;;;0.50;0.40;;;27.40;39.30;;;;;;5098399;28;19955;-65
2022/07/05 12:20:09;;;;;;;0.73;0.40;;;27.30;41.50;;;;;;5097985;28;20035;-65
2022/07/05 12:22:42;;;;;;;1.77;0.38;;;27.30;42.00;;;;;;5097193;28;20197;-64
2022/07/05 12:25:13;;;;;;;3.22;0.50;;;27.30;41.90;;;;;;5096978;28;20081;-65
2022/07/05 12:27:41;;;;;;;0.75;0.50;;;27.30;41.10;;;;;;5099111;28;20093;-64
2022/07/05 12:30:09;;;;;;;0.70;0.50;;;27.30;40.40;;;;;;5097212;28;20032;-65
2022/07/05 12:32:52;;;;;;;2.78;0.40;;;27.30;40.00;;;;;;5094196;28;20030;-64
2022/07/05 12:35:27;;;;;;;1.02;0.50;;;27.30;38.90;;;;;;5095026;28;20043;-64
2022/07/05 12:37:53;;;;;;;0.75;0.40;;;27.30;40.20;;;;;;5096964;28;20512;-64
2022/07/05 12:40:22;;;;;;;0.40;0.40;;;27.20;41.30;;;;;;5096941;28;20039;-65
2022/07/05 12:43:00;;;;;;;0.80;0.40;;;27.20;41.20;;;;;;5095415;28;20042;-65
2022/07/05 12:45:26;;;;;;;0.30;0.30;;;27.30;39.60;;;;;;5095872;28;20040;-65
2022/07/05 12:47:54;;;;;;;0.85;0.43;;;27.30;41.40;;;;;;5098024;28;20093;-65
2022/07/05 12:50:22;;;;;;;0.98;0.45;;;27.40;40.50;;;;;;5097514;28;20028;-65
2022/07/05 12:58:58;;;;;;;;;;;27.60;41.00;;;;;;5043018;28;20107;-65
2022/07/05 13:01:31;;;;;;;1.35;0.40;;;27.60;40.20;;;;;;5072527;28;19939;-65
2022/07/05 13:04:14;;;;;;;0.85;0.57;;;27.60;38.60;;;;;;5098539;28;20384;-65